createdAt,value
2022-10-15T00:00:49.654Z,85.98
2022-10-15T00:03:52.074Z,85.77
2022-10-15T00:06:54.507Z,85.97
2022-10-15T00:09:56.883Z,86.30
2022-10-15T00:12:59.349Z,86.23
2022-10-15T00:16:01.956Z,86.64
2022-10-15T00:19:04.429Z,86.70
2022-10-15T00:22:06.875Z,86.27
2022-10-15T00:25:09.932Z,86.67
2022-10-15T00:28:12.330Z,86.29
2022-10-15T00:31:17.185Z,85.64
2022-10-15T00:34:23.266Z,85.49
2022-10-15T00:37:25.726Z,85.39
2022-10-15T00:40:31.968Z,85.53
2022-10-15T00:43:48.658Z,85.52
2022-10-15T00:47:06.366Z,85.30
2022-10-15T00:50:25.803Z,85.63
2022-10-15T00:53:28.277Z,85.80
2022-10-15T00:56:32.946Z,85.99
2022-10-15T00:59:39.337Z,86.48
2022-10-15T01:02:43.895Z,86.06
2022-10-15T01:05:49.810Z,86.48
2022-10-15T01:08:52.742Z,86.92
2022-10-15T01:11:56.305Z,87.03
2022-10-15T01:15:05.270Z,87.45
2022-10-15T01:18:14.669Z,87.40
2022-10-15T01:21:49.878Z,87.72
2022-10-15T01:25:01.806Z,88.37
2022-10-15T01:28:23.996Z,88.66
2022-10-15T01:31:49.101Z,88.33
2022-10-15T01:34:59.327Z,89.11
2022-10-15T01:38:17.217Z,89.18
2022-10-15T01:41:49.682Z,89.58
2022-10-15T01:44:59.586Z,89.49
2022-10-15T01:48:23.906Z,89.47
2022-10-15T01:51:28.994Z,89.18
2022-10-15T01:54:34.299Z,89.20
2022-10-15T01:57:39.408Z,89.15
2022-10-15T02:00:44.244Z,88.96
2022-10-15T02:03:48.325Z,89.05
2022-10-15T02:06:58.173Z,88.05
2022-10-15T02:10:11.273Z,88.46
2022-10-15T02:13:30.681Z,88.64
2022-10-15T02:16:41.967Z,89.20
2022-10-15T02:19:52.299Z,89.04
2022-10-15T02:23:20.367Z,88.33
2022-10-15T02:26:26.375Z,88.11
2022-10-15T02:29:34.055Z,88.15
2022-10-15T02:32:39.818Z,88.93
2022-10-15T02:35:44.252Z,88.90
2022-10-15T02:38:48.122Z,88.47
2022-10-15T02:41:53.555Z,88.31
2022-10-15T02:44:55.974Z,87.81
2022-10-15T02:47:58.440Z,87.65
2022-10-15T02:51:00.802Z,87.62
2022-10-15T02:54:08.381Z,88.00
2022-10-15T02:57:10.857Z,87.93
2022-10-15T03:00:15.634Z,87.81
2022-10-15T03:03:18.037Z,88.10
2022-10-15T03:06:20.999Z,88.30
2022-10-15T03:09:23.988Z,87.87
2022-10-15T03:12:26.449Z,87.92
2022-10-15T03:15:29.799Z,88.13
2022-10-15T03:18:35.606Z,88.05
2022-10-15T03:21:40.656Z,87.87
2022-10-15T03:24:47.436Z,88.25
2022-10-15T03:27:56.149Z,88.83
2022-10-15T03:31:06.858Z,89.96
2022-10-15T03:34:09.607Z,90.27
2022-10-15T03:37:12.310Z,90.49
2022-10-15T03:40:14.988Z,90.75
2022-10-15T03:43:19.182Z,91.40
2022-10-15T03:46:22.139Z,90.91
2022-10-15T03:49:25.656Z,91.01
2022-10-15T03:52:28.444Z,91.36
2022-10-15T03:55:31.438Z,91.13
2022-10-15T03:58:34.205Z,91.00
2022-10-15T04:01:39.553Z,91.16
2022-10-15T04:04:42.816Z,91.43
2022-10-15T04:07:45.336Z,91.33
2022-10-15T04:10:53.439Z,91.17
2022-10-15T04:13:56.103Z,90.84
2022-10-15T04:16:59.133Z,90.49
2022-10-15T04:20:05.050Z,90.23
2022-10-15T04:23:07.417Z,90.05
2022-10-15T04:26:10.267Z,90.84
2022-10-15T04:29:12.836Z,90.95
2022-10-15T04:32:16.026Z,90.62
2022-10-15T04:35:20.470Z,90.39
2022-10-15T04:38:36.454Z,90.39
2022-10-15T04:41:39.479Z,90.80
2022-10-15T04:45:05.971Z,90.63
2022-10-15T04:48:08.569Z,90.31
2022-10-15T04:51:17.239Z,90.05
2022-10-15T04:54:38.790Z,89.61
2022-10-15T04:57:42.078Z,89.12
2022-10-15T05:00:44.697Z,88.85
2022-10-15T05:04:02.172Z,88.98
2022-10-15T05:07:05.596Z,88.38
2022-10-15T05:10:08.503Z,88.27
2022-10-15T05:13:11.024Z,88.04
2022-10-15T05:16:23.159Z,88.62
2022-10-15T05:19:26.081Z,88.94
2022-10-15T05:22:28.720Z,89.35
2022-10-15T05:25:34.669Z,89.24
2022-10-15T05:28:37.878Z,89.31
2022-10-15T05:31:40.736Z,89.38
2022-10-15T05:34:51.401Z,88.93
2022-10-15T05:37:54.367Z,88.73
2022-10-15T05:40:57.016Z,87.74
2022-10-15T05:44:00.482Z,88.10
2022-10-15T05:47:09.562Z,88.21
2022-10-15T05:50:12.338Z,87.95
2022-10-15T05:53:20.209Z,87.46
2022-10-15T05:56:26.417Z,86.57
2022-10-15T05:59:29.207Z,86.55
2022-10-15T06:02:31.942Z,86.78
2022-10-15T06:05:34.659Z,85.69
2022-10-15T06:08:37.446Z,85.95
2022-10-15T06:11:40.287Z,85.97
2022-10-15T06:14:45.431Z,86.22
2022-10-15T06:17:48.180Z,85.66
2022-10-15T06:20:53.900Z,85.43
2022-10-15T06:23:56.412Z,85.49
2022-10-15T06:27:00.054Z,85.29
2022-10-15T06:30:02.550Z,85.54
2022-10-15T06:33:05.220Z,84.52
2022-10-15T06:36:10.206Z,85.47
2022-10-15T06:39:12.776Z,85.90
2022-10-15T06:42:17.153Z,85.80
2022-10-15T06:45:23.316Z,85.85
2022-10-15T06:48:26.249Z,85.55
2022-10-15T06:51:28.869Z,85.33
2022-10-15T06:54:31.377Z,84.83
2022-10-15T06:57:34.052Z,84.72
2022-10-15T07:00:36.624Z,84.69
2022-10-15T07:03:41.867Z,83.78
2022-10-15T07:06:47.127Z,83.07
2022-10-15T07:09:55.263Z,83.37
2022-10-15T07:13:01.996Z,83.45
2022-10-15T07:16:09.821Z,84.25
2022-10-15T07:19:12.588Z,84.22
2022-10-15T07:22:16.342Z,84.49
2022-10-15T07:25:18.871Z,84.54
2022-10-15T07:28:21.618Z,84.06
2022-10-15T07:31:24.361Z,83.46
2022-10-15T07:34:26.907Z,83.23
2022-10-15T07:37:29.693Z,82.76
2022-10-15T07:40:33.157Z,81.97
2022-10-15T07:43:36.759Z,81.64
2022-10-15T07:46:39.224Z,81.56
2022-10-15T07:49:41.752Z,81.29
2022-10-15T07:52:44.279Z,81.49
2022-10-15T07:55:46.996Z,80.93
2022-10-15T07:58:51.923Z,80.69
2022-10-15T08:01:54.975Z,79.69
2022-10-15T08:04:57.668Z,79.06
2022-10-15T08:08:00.436Z,78.52
2022-10-15T08:11:09.874Z,77.63
2022-10-15T08:14:12.327Z,76.62
2022-10-15T08:17:14.784Z,75.94
2022-10-15T08:20:17.326Z,74.63
2022-10-15T08:23:19.827Z,75.05
2022-10-15T08:26:22.524Z,75.40
2022-10-15T08:29:25.039Z,75.04
2022-10-15T08:32:27.554Z,74.28
2022-10-15T08:35:35.227Z,74.24
2022-10-15T08:38:37.660Z,74.82
2022-10-15T08:41:45.348Z,74.09
2022-10-15T08:44:53.632Z,74.26
2022-10-15T08:48:06.216Z,73.26
2022-10-15T08:51:20.157Z,72.05
2022-10-15T08:54:22.908Z,74.09
2022-10-15T08:57:49.442Z,73.63
2022-10-15T09:00:59.844Z,72.73
2022-10-15T09:04:22.642Z,72.31
2022-10-15T09:07:43.426Z,71.42
2022-10-15T09:11:12.547Z,70.73
2022-10-15T09:14:20.018Z,70.33
2022-10-15T09:17:27.491Z,69.87
2022-10-15T09:20:37.039Z,69.21
2022-10-15T09:23:41.532Z,68.46
2022-10-15T09:26:56.108Z,67.98
2022-10-15T09:30:07.029Z,67.04
2022-10-15T09:33:27.326Z,66.87
2022-10-15T09:36:33.006Z,66.53
2022-10-15T09:40:01.508Z,65.85
2022-10-15T09:43:06.150Z,64.35
2022-10-15T09:46:10.717Z,64.75
2022-10-15T09:49:24.721Z,64.83
2022-10-15T09:52:32.466Z,64.73
2022-10-15T09:56:05.560Z,64.05
2022-10-15T09:59:16.555Z,62.76
2022-10-15T10:02:21.794Z,62.95
2022-10-15T10:05:30.611Z,62.67
2022-10-15T10:12:01.941Z,62.51
2022-10-15T10:15:28.859Z,62.50
2022-10-15T10:18:32.178Z,60.63
2022-10-15T10:21:39.322Z,62.11
2022-10-15T10:24:41.758Z,61.05
2022-10-15T10:27:46.808Z,59.94
2022-10-15T10:31:00.335Z,58.26
2022-10-15T10:34:03.802Z,56.82
2022-10-15T10:37:07.721Z,56.43
2022-10-15T10:40:36.472Z,55.67
2022-10-15T10:43:54.357Z,55.36
2022-10-15T10:47:14.014Z,54.48
2022-10-15T10:50:34.676Z,54.65
2022-10-15T10:54:04.741Z,53.45
2022-10-15T10:57:14.468Z,54.22
2022-10-15T11:00:42.796Z,54.37
2022-10-15T11:03:46.159Z,54.57
2022-10-15T11:06:56.133Z,54.93
2022-10-15T11:10:18.958Z,54.46
2022-10-15T11:13:39.883Z,51.10
2022-10-15T11:16:50.077Z,51.48
2022-10-15T11:23:51.590Z,51.71
2022-10-15T11:27:31.412Z,50.33
2022-10-15T11:30:33.960Z,50.44
2022-10-15T11:33:53.048Z,50.69
2022-10-15T11:37:21.452Z,51.08
2022-10-15T11:40:32.676Z,50.77
2022-10-15T11:43:41.045Z,49.37
2022-10-15T11:46:46.493Z,49.02
2022-10-15T11:50:02.774Z,49.22
2022-10-15T11:53:16.840Z,50.32
2022-10-15T11:56:38.859Z,50.89
2022-10-15T11:59:55.319Z,50.29
2022-10-15T12:03:05.389Z,51.30
2022-10-15T12:06:13.976Z,51.41
2022-10-15T12:09:25.253Z,50.83
2022-10-15T12:12:49.099Z,50.99
2022-10-15T12:16:12.639Z,50.47
2022-10-15T12:19:17.580Z,50.70
2022-10-15T12:22:39.696Z,51.20
2022-10-15T12:25:44.094Z,52.95
2022-10-15T12:28:48.845Z,53.51
2022-10-15T12:31:56.380Z,54.92
2022-10-15T12:35:05.989Z,55.18
2022-10-15T12:38:11.993Z,54.73
2022-10-15T12:41:14.727Z,54.49
2022-10-15T12:44:22.882Z,53.97
2022-10-15T12:48:22.578Z,52.30
2022-10-15T12:51:24.864Z,52.37
2022-10-15T12:54:44.862Z,51.41
2022-10-15T12:58:01.354Z,52.18
2022-10-15T13:01:47.021Z,51.05
2022-10-15T13:04:49.374Z,51.24
2022-10-15T13:07:53.055Z,50.91
2022-10-15T13:10:59.307Z,51.31
2022-10-15T13:14:23.704Z,50.00
2022-10-15T13:17:31.406Z,49.75
2022-10-15T13:20:37.972Z,49.19
2022-10-15T13:23:45.927Z,49.96
2022-10-15T13:26:48.963Z,50.27
2022-10-15T13:30:02.300Z,49.76
2022-10-15T13:33:04.989Z,49.88
2022-10-15T13:36:08.497Z,49.69
2022-10-15T13:39:30.889Z,50.14
2022-10-15T13:42:33.739Z,50.71
2022-10-15T13:45:37.355Z,50.95
2022-10-15T13:48:45.076Z,51.16
2022-10-15T13:51:50.376Z,51.59
2022-10-15T13:54:52.771Z,51.61
2022-10-15T13:58:01.921Z,52.21
2022-10-15T14:01:22.147Z,53.20
2022-10-15T14:04:24.541Z,53.26
2022-10-15T14:07:27.601Z,53.02
2022-10-15T14:10:31.762Z,53.29
2022-10-15T14:13:35.399Z,53.54
2022-10-15T14:16:47.387Z,54.02
2022-10-15T14:20:25.928Z,54.33
2022-10-15T14:23:25.770Z,55.04
2022-10-15T14:26:39.110Z,54.56
2022-10-15T14:29:50.481Z,55.64
2022-10-15T14:32:52.903Z,55.76
2022-10-15T14:36:21.797Z,56.68
2022-10-15T14:39:32.191Z,57.16
2022-10-15T14:42:37.857Z,57.42
2022-10-15T14:45:52.392Z,58.22
2022-10-15T14:48:54.928Z,58.76
2022-10-15T14:52:09.845Z,58.87
2022-10-15T14:55:27.127Z,59.49
2022-10-15T14:58:30.321Z,59.71
2022-10-15T15:01:35.371Z,60.22
2022-10-15T15:04:41.395Z,60.56
2022-10-15T15:07:44.097Z,60.21
2022-10-15T15:13:52.278Z,60.46
2022-10-15T15:16:55.036Z,61.06
2022-10-15T15:19:57.806Z,61.32
2022-10-15T15:23:00.201Z,61.55
2022-10-15T15:26:02.898Z,61.96
2022-10-15T15:29:14.536Z,62.67
2022-10-15T15:32:17.837Z,63.22
2022-10-15T15:35:51.092Z,63.60
2022-10-15T15:38:58.570Z,63.98
2022-10-15T15:42:00.992Z,64.59
2022-10-15T15:45:04.540Z,64.92
2022-10-15T15:48:08.638Z,65.86
2022-10-15T15:51:21.182Z,66.19
2022-10-15T15:54:23.590Z,67.24
2022-10-15T15:57:26.272Z,67.58
2022-10-15T16:00:29.124Z,67.67
2022-10-15T16:03:31.421Z,69.49
2022-10-15T16:06:33.800Z,70.30
2022-10-15T16:09:36.260Z,69.33
2022-10-15T16:12:39.880Z,69.26
2022-10-15T16:15:42.228Z,69.89
2022-10-15T16:18:44.705Z,70.58
2022-10-15T16:21:47.207Z,70.75
2022-10-15T16:24:49.628Z,70.74
2022-10-15T16:27:52.086Z,71.70
2022-10-15T16:30:54.441Z,71.56
2022-10-15T16:33:57.170Z,71.79
2022-10-15T16:36:59.669Z,72.26
2022-10-15T16:40:02.230Z,71.62
2022-10-15T16:43:04.675Z,71.60
2022-10-15T16:46:07.239Z,71.64
2022-10-15T16:49:09.820Z,71.75
2022-10-15T16:52:12.586Z,71.38
2022-10-15T16:55:16.668Z,70.85
2022-10-15T16:58:19.197Z,70.76
2022-10-15T17:01:24.337Z,70.65
2022-10-15T17:04:27.281Z,70.79
2022-10-15T17:07:29.651Z,71.02
2022-10-15T17:10:32.161Z,71.78
2022-10-15T17:13:34.622Z,71.69
2022-10-15T17:16:38.851Z,72.64
2022-10-15T17:19:41.236Z,73.49
2022-10-15T17:22:43.659Z,74.22
2022-10-15T17:25:46.042Z,74.49
2022-10-15T17:28:50.097Z,75.05
2022-10-15T17:31:52.614Z,75.23
2022-10-15T17:34:54.943Z,74.50
2022-10-15T17:38:00.348Z,75.19
2022-10-15T17:41:14.712Z,75.33
2022-10-15T17:44:17.134Z,75.33
2022-10-15T17:47:19.606Z,75.30
2022-10-15T17:50:22.066Z,75.78
2022-10-15T17:53:24.592Z,76.37
2022-10-15T17:56:32.822Z,76.94
2022-10-15T17:59:35.372Z,77.43
2022-10-15T18:02:37.847Z,77.57
2022-10-15T18:05:40.302Z,78.11
2022-10-15T18:08:43.323Z,78.80
2022-10-15T18:11:48.158Z,78.99
2022-10-15T18:14:50.625Z,79.27
2022-10-15T18:17:59.182Z,79.61
2022-10-15T18:21:03.375Z,79.96
2022-10-15T18:24:05.753Z,80.32
2022-10-15T18:27:08.071Z,80.84
2022-10-15T18:30:11.882Z,81.18
2022-10-15T18:33:14.223Z,81.06
2022-10-15T18:36:19.931Z,81.40
2022-10-15T18:39:22.316Z,82.02
2022-10-15T18:42:24.967Z,82.85
2022-10-15T18:45:27.540Z,83.31
2022-10-15T18:48:32.832Z,82.65
2022-10-15T18:51:35.429Z,82.60
2022-10-15T18:54:38.583Z,82.33
2022-10-15T18:57:41.049Z,82.23
2022-10-15T19:00:43.859Z,81.33
2022-10-15T19:03:49.814Z,81.38
2022-10-15T19:06:53.814Z,81.22
2022-10-15T19:09:56.483Z,81.78
2022-10-15T19:13:01.868Z,82.36
2022-10-15T19:16:07.140Z,82.97
2022-10-15T19:19:13.174Z,83.19
2022-10-15T19:22:16.096Z,83.78
2022-10-15T19:25:18.435Z,83.76
2022-10-15T19:28:22.281Z,84.01
2022-10-15T19:31:33.808Z,83.81
2022-10-15T19:34:36.499Z,82.71
2022-10-15T19:37:38.849Z,82.58
2022-10-15T19:40:44.707Z,82.02
2022-10-15T19:43:49.689Z,82.02
2022-10-15T19:46:52.285Z,82.37
2022-10-15T19:49:55.497Z,82.42
2022-10-15T19:52:57.888Z,83.32
2022-10-15T19:56:06.059Z,83.32
2022-10-15T19:59:10.151Z,83.65
2022-10-15T20:02:12.554Z,83.98
2022-10-15T20:05:16.183Z,84.42
2022-10-15T20:08:18.707Z,84.98
2022-10-15T20:11:21.326Z,84.94
2022-10-15T20:14:23.787Z,85.14
2022-10-15T20:17:27.076Z,85.23
2022-10-15T20:20:29.888Z,86.32
2022-10-15T20:23:32.336Z,86.77
2022-10-15T20:26:34.639Z,86.95
2022-10-15T20:29:37.019Z,87.08
2022-10-15T20:32:39.517Z,87.22
2022-10-15T20:35:42.412Z,87.22
2022-10-15T20:38:44.854Z,87.80
2022-10-15T20:41:48.216Z,87.82
2022-10-15T20:44:50.653Z,87.27
2022-10-15T20:47:53.411Z,87.93
2022-10-15T20:50:55.905Z,88.33
2022-10-15T20:53:59.529Z,88.84
2022-10-15T20:57:02.724Z,88.91
2022-10-15T21:00:07.841Z,89.41
2022-10-15T21:03:10.204Z,88.15
2022-10-15T21:06:12.637Z,89.16
2022-10-15T21:09:15.096Z,88.72
2022-10-15T21:12:18.574Z,90.28
2022-10-15T21:15:21.240Z,89.40
2022-10-15T21:18:25.774Z,88.78
2022-10-15T21:21:28.598Z,88.80
2022-10-15T21:24:30.994Z,88.33
2022-10-15T21:27:33.286Z,88.77
2022-10-15T21:30:41.067Z,89.63
2022-10-15T21:33:43.887Z,88.92
2022-10-15T21:36:46.326Z,89.20
2022-10-15T21:39:48.751Z,88.83
2022-10-15T21:42:51.040Z,89.42
2022-10-15T21:45:53.363Z,88.87
2022-10-15T21:48:55.693Z,89.54
2022-10-15T21:51:58.029Z,89.30
2022-10-15T21:55:00.352Z,88.35
2022-10-15T21:58:02.755Z,87.57
2022-10-15T22:01:15.813Z,88.11
2022-10-15T22:04:19.609Z,88.60
2022-10-15T22:07:22.317Z,89.46
2022-10-15T22:10:24.838Z,90.57
2022-10-15T22:13:27.279Z,90.32
2022-10-15T22:16:32.064Z,90.46
2022-10-15T22:19:34.493Z,90.56
2022-10-15T22:22:36.764Z,90.47
2022-10-15T22:25:39.077Z,89.65
2022-10-15T22:28:42.978Z,89.56
2022-10-15T22:31:45.385Z,90.63
2022-10-15T22:34:47.939Z,91.00
2022-10-15T22:37:50.313Z,90.45
2022-10-15T22:40:54.648Z,90.09
2022-10-15T22:43:57.464Z,90.01
2022-10-15T22:46:59.837Z,90.84
2022-10-15T22:53:09.417Z,90.07
2022-10-15T22:56:17.939Z,90.72
2022-10-15T22:59:20.915Z,90.94
2022-10-15T23:02:23.528Z,90.91
2022-10-15T23:05:26.070Z,90.93
2022-10-15T23:08:28.441Z,90.21
2022-10-15T23:11:33.648Z,90.73
2022-10-15T23:14:36.107Z,90.35
2022-10-15T23:17:38.479Z,90.06
2022-10-15T23:20:40.826Z,89.61
2022-10-15T23:23:45.042Z,89.42
2022-10-15T23:26:47.585Z,88.70
2022-10-15T23:29:56.894Z,88.30
2022-10-15T23:33:10.012Z,88.13
2022-10-15T23:36:12.552Z,88.29
2022-10-15T23:39:19.231Z,87.68
2022-10-15T23:42:21.589Z,87.88
2022-10-15T23:45:23.973Z,87.65
2022-10-15T23:48:28.654Z,87.29
2022-10-15T23:51:32.296Z,87.33
2022-10-15T23:54:34.653Z,87.71
2022-10-15T23:57:37.038Z,88.19
